Time;durP1;ratioP1;P1;durP2;ratioP2;P2;SDS_P1;SDS_P2;PMS_P1;PMS_P2;Temp;Humidity;BMP_temperature;BMP_pressure;BME280_temperature;BME280_humidity;BME280_pressure;Samples;Min_cycle;Max_cycle;Signal;HPM_P1;HPM_P2
2022/02/08 00:00:40;;;;;;;22.00;4.60;;;5.80;99.90;;;;;;4941699;28;20050;-88
2022/02/08 00:03:06;;;;;;;29.25;5.47;;;5.80;99.90;;;;;;4961348;28;20039;-88
2022/02/08 00:05:33;;;;;;;28.20;6.82;;;5.70;99.90;;;;;;4916701;28;20039;-90
2022/02/08 00:07:59;;;;;;;29.98;5.70;;;5.70;99.90;;;;;;4931219;28;20458;-88
2022/02/08 00:10:29;;;;;;;31.08;6.05;;;5.70;99.90;;;;;;4951774;28;20123;-89
2022/02/08 00:12:57;;;;;;;28.65;6.25;;;5.60;99.90;;;;;;4950064;28;20078;-87
2022/02/08 00:15:24;;;;;;;28.50;6.68;;;5.60;99.90;;;;;;4914000;28;20041;-88
2022/02/08 00:17:49;;;;;;;28.23;6.88;;;5.60;99.90;;;;;;4935086;28;20043;-86
2022/02/08 00:20:15;;;;;;;37.45;7.50;;;5.60;99.90;;;;;;4914834;28;20076;-86
2022/02/08 00:22:41;;;;;;;35.40;7.93;;;5.50;99.90;;;;;;4942884;28;20042;-87
2022/02/08 00:25:07;;;;;;;39.20;7.40;;;5.50;99.90;;;;;;4932163;28;20097;-88
2022/02/08 00:27:33;;;;;;;31.20;7.20;;;5.50;99.90;;;;;;4954238;28;20081;-87
2022/02/08 00:29:59;;;;;;;26.98;8.60;;;5.60;99.90;;;;;;4931167;28;20066;-91
2022/02/08 00:32:25;;;;;;;31.95;7.43;;;5.60;99.90;;;;;;4930108;28;20578;-89
2022/02/08 00:34:53;;;;;;;35.80;8.38;;;5.60;99.90;;;;;;4912160;28;20125;-89
2022/02/08 00:37:19;;;;;;;44.25;8.27;;;5.60;99.90;;;;;;4953957;28;20046;-88
2022/02/08 00:39:45;;;;;;;37.28;8.48;;;5.60;99.90;;;;;;4947588;28;20121;-92
2022/02/08 00:42:12;;;;;;;34.05;8.27;;;5.70;99.90;;;;;;4932598;28;20050;-87
2022/02/08 00:47:50;;;;;;;37.60;8.77;;;5.70;99.90;;;;;;4962968;28;20051;-89
2022/02/08 00:50:08;;;;;;;37.13;9.43;;;5.70;99.90;;;;;;4943379;28;20401;-89
2022/02/08 00:52:36;;;;;;;33.90;9.23;;;5.70;99.90;;;;;;4961055;28;20043;-89
2022/02/08 00:55:03;;;;;;;45.25;9.30;;;5.70;99.90;;;;;;4914748;28;20039;-90
2022/02/08 00:57:29;;;;;;;57.10;9.90;;;5.80;99.90;;;;;;4948474;28;20043;-88
2022/02/08 00:59:55;;;;;;;49.00;9.65;;;5.80;99.90;;;;;;4946829;28;20097;-89
2022/02/08 01:02:21;;;;;;;41.97;9.65;;;5.80;99.90;;;;;;4911825;28;20514;-90
2022/02/08 01:04:53;;;;;;;43.30;9.18;;;5.80;99.90;;;;;;4925993;28;20090;-87
2022/02/08 01:07:19;;;;;;;52.38;10.77;;;5.90;99.90;;;;;;4927010;28;20415;-89
2022/02/08 01:09:53;;;;;;;44.55;10.45;;;5.90;99.90;;;;;;4945850;28;20065;-90
2022/02/08 01:12:21;;;;;;;44.65;11.25;;;5.90;99.90;;;;;;4965790;28;20502;-88
2022/02/08 01:14:51;;;;;;;40.08;9.80;;;5.90;99.90;;;;;;4928655;28;20042;-86
2022/02/08 01:17:20;;;;;;;56.53;12.43;;;5.90;99.90;;;;;;4932497;28;20045;-93
2022/02/08 01:19:55;;;;;;;39.28;11.07;;;6.00;99.90;;;;;;4935071;28;20047;-90
2022/02/08 01:22:23;;;;;;;43.92;12.20;;;6.00;99.90;;;;;;4918803;28;20383;-89
2022/02/08 01:24:50;;;;;;;48.80;12.50;;;6.00;99.90;;;;;;4931016;28;20050;-88
2022/02/08 01:27:22;;;;;;;51.08;14.82;;;6.00;99.90;;;;;;4952212;28;20047;-91
2022/02/08 01:35:21;;;;;;;56.08;15.52;;;6.00;99.90;;;;;;4961637;28;20050;-89
2022/02/08 01:37:53;;;;;;;69.82;16.45;;;6.00;99.90;;;;;;4957856;28;20039;-90
2022/02/08 01:40:32;;;;;;;60.08;16.80;;;6.10;99.90;;;;;;4947146;28;20077;-89
2022/02/08 01:48:27;;;;;;;62.75;18.40;;;6.10;99.90;;;;;;4948627;28;20216;-89
2022/02/08 01:50:56;;;;;;;50.38;18.33;;;6.10;99.90;;;;;;4920804;28;20085;-90
2022/02/08 01:53:23;;;;;;;58.90;19.58;;;6.20;99.90;;;;;;4921779;28;20066;-91
2022/02/08 01:55:50;;;;;;;54.58;19.73;;;6.20;99.90;;;;;;4951744;28;20046;-90
2022/02/08 01:58:22;;;;;;;49.85;20.25;;;6.30;99.90;;;;;;4966844;28;20493;-89
2022/02/08 02:00:48;;;;;;;61.92;20.63;;;6.30;99.90;;;;;;4959916;28;20038;-90
2022/02/08 02:03:17;;;;;;;60.55;19.48;;;6.40;99.90;;;;;;4965399;28;20108;-89
2022/02/08 02:05:44;;;;;;;58.45;19.63;;;6.40;99.90;;;;;;4948147;28;20050;-89
2022/02/08 02:08:10;;;;;;;49.38;20.50;;;6.40;99.90;;;;;;4919281;28;20043;-90
2022/02/08 02:10:38;;;;;;;49.30;21.02;;;6.40;99.90;;;;;;4931517;28;20502;-92
2022/02/08 02:13:17;;;;;;;45.20;19.38;;;6.50;99.90;;;;;;4920156;28;20049;-88
2022/02/08 02:15:43;;;;;;;45.63;20.70;;;6.60;99.90;;;;;;4934996;28;20125;-91
2022/02/08 02:18:10;;;;;;;55.47;22.45;;;6.60;99.90;;;;;;4930844;28;20038;-91
2022/02/08 02:20:35;;;;;;;53.55;21.95;;;6.60;99.90;;;;;;4941890;28;20046;-87
2022/02/08 02:23:02;;;;;;;52.80;21.38;;;6.70;99.90;;;;;;4960693;28;20145;-89
2022/02/08 02:25:33;;;;;;;50.20;22.83;;;6.70;99.90;;;;;;4928899;28;20517;-89
2022/02/08 02:28:05;;;;;;;56.83;22.60;;;6.70;99.90;;;;;;4948073;28;20093;-92
2022/02/08 02:30:32;;;;;;;49.55;22.25;;;6.80;99.90;;;;;;4950592;28;20047;-89
2022/02/08 02:32:59;;;;;;;51.88;22.77;;;6.80;99.90;;;;;;4947252;28;20255;-89
2022/02/08 02:35:26;;;;;;;59.50;22.88;;;6.80;99.90;;;;;;4948882;28;20039;-89
2022/02/08 02:37:57;;;;;;;65.07;24.45;;;6.90;99.90;;;;;;4948717;28;20517;-90
2022/02/08 02:40:23;;;;;;;61.17;23.77;;;6.90;99.90;;;;;;4947291;28;20113;-89
2022/02/08 02:42:56;;;;;;;60.30;25.33;;;6.90;99.90;;;;;;4929746;28;20042;-87
2022/02/08 02:45:23;;;;;;;64.90;26.58;;;7.00;99.90;;;;;;4942052;28;20125;-91
2022/02/08 02:47:52;;;;;;;58.75;25.25;;;7.00;99.90;;;;;;4934550;28;20093;-92
2022/02/08 02:50:20;;;;;;;66.80;26.60;;;7.10;99.90;;;;;;4939393;28;20035;-91
2022/02/08 02:52:46;;;;;;;68.43;26.08;;;7.10;99.90;;;;;;4966468;28;20042;-89
2022/02/08 02:55:15;;;;;;;69.53;26.70;;;7.10;99.90;;;;;;4929374;28;20043;-87
2022/02/08 02:57:43;;;;;;;77.55;27.02;;;7.20;99.90;;;;;;4947982;28;20046;-89
2022/02/08 03:00:12;;;;;;;70.25;27.80;;;7.20;99.90;;;;;;4941376;28;20046;-89
2022/02/08 03:02:54;;;;;;;66.47;26.38;;;7.30;99.90;;;;;;4976327;28;20641;-89
2022/02/08 03:17:32;;;;;;;80.30;27.00;;;7.30;99.90;;;;;;4952606;28;20137;-89
2022/02/08 03:19:06;;;;;;;65.50;25.48;;;7.50;99.90;;;;;;4946443;28;20043;-90
2022/02/08 03:21:33;;;;;;;63.42;25.08;;;7.50;99.90;;;;;;4912362;28;20133;-88
2022/02/08 03:23:58;;;;;;;67.30;25.20;;;7.60;99.90;;;;;;4941209;28;20035;-90
2022/02/08 03:26:24;;;;;;;75.05;26.35;;;7.60;99.90;;;;;;4915181;28;20130;-88
2022/02/08 03:28:50;;;;;;;70.25;25.92;;;7.60;99.90;;;;;;4945966;28;20046;-88
2022/02/08 03:31:16;;;;;;;60.03;25.58;;;7.70;99.90;;;;;;4929955;28;20101;-89
2022/02/08 03:33:45;;;;;;;59.50;25.75;;;7.70;99.90;;;;;;4942775;28;20034;-85
2022/02/08 03:36:11;;;;;;;65.72;23.00;;;7.70;99.90;;;;;;4960972;28;20069;-91
2022/02/08 03:38:43;;;;;;;63.58;24.05;;;7.80;99.90;;;;;;4918391;28;20498;-90
2022/02/08 03:41:10;;;;;;;71.90;23.25;;;7.80;99.90;;;;;;4944959;28;20043;-90
2022/02/08 03:43:43;;;;;;;59.15;22.40;;;7.80;99.90;;;;;;4929222;28;20046;-89
2022/02/08 03:46:14;;;;;;;55.75;22.48;;;7.90;99.90;;;;;;4959437;28;20045;-91
2022/02/08 03:48:44;;;;;;;63.15;22.95;;;7.90;99.90;;;;;;4948794;28;20341;-89
2022/02/08 03:51:24;;;;;;;48.45;21.50;;;8.00;99.90;;;;;;4948840;28;20046;-88
2022/02/08 03:53:52;;;;;;;60.88;21.50;;;8.00;99.90;;;;;;4922784;28;20061;-89
2022/02/08 03:56:21;;;;;;;72.25;21.55;;;8.00;99.90;;;;;;4942944;28;20497;-90
2022/02/08 03:58:47;;;;;;;53.85;20.55;;;8.00;99.90;;;;;;4948960;28;20066;-91
2022/02/08 04:01:40;;;;;;;59.15;21.50;;;8.00;99.90;;;;;;4948651;28;21041;-89
2022/02/08 04:06:57;;;;;;;58.15;20.50;;;8.10;99.90;;;;;;4963322;28;20553;-88
2022/02/08 04:09:24;;;;;;;59.33;20.23;;;8.10;99.90;;;;;;4938554;28;20034;-89
2022/02/08 04:12:00;;;;;;;60.03;20.50;;;8.10;99.90;;;;;;4948082;28;20081;-89
2022/02/08 04:16:54;;;;;;;48.42;18.73;;;8.10;99.90;;;;;;4946736;28;20047;-90
2022/02/08 04:19:36;;;;;;;53.00;17.30;;;8.20;99.90;;;;;;4947501;28;20057;-90
2022/02/08 04:35:44;;;;;;;49.92;15.90;;;8.30;99.90;;;;;;4946835;28;20550;-91
2022/02/08 04:46:00;;;;;;;38.22;14.65;;;8.30;99.90;;;;;;4948558;28;20047;-90
2022/02/08 04:48:46;;;;;;;41.08;14.68;;;8.40;99.90;;;;;;4925423;28;20027;-91
2022/02/08 04:51:21;;;;;;;33.38;13.60;;;8.40;99.90;;;;;;4968005;28;20039;-90
2022/02/08 04:53:56;;;;;;;50.63;14.15;;;8.40;99.90;;;;;;4951783;28;20129;-89
2022/02/08 05:34:24;;;;;;;31.35;10.15;;;8.60;99.90;;;;;;4937257;28;20043;-90
2022/02/08 05:45:10;;;;;;;28.88;9.25;;;8.60;99.90;;;;;;4949935;28;20530;-91
2022/02/08 05:47:41;;;;;;;38.30;9.68;;;8.60;99.90;;;;;;4950473;28;20034;-88
2022/02/08 05:50:23;;;;;;;33.40;8.68;;;8.60;99.90;;;;;;4935142;28;20284;-88
2022/02/08 05:53:04;;;;;;;27.85;9.10;;;8.60;99.90;;;;;;4959951;28;20599;-91
2022/02/08 05:55:36;;;;;;;31.20;9.50;;;8.60;99.90;;;;;;4931924;28;20042;-90
2022/02/08 05:58:03;;;;;;;32.40;8.80;;;8.60;99.90;;;;;;4933013;28;20477;-89
2022/02/08 06:00:40;;;;;;;29.10;8.10;;;8.60;99.90;;;;;;4928393;28;20121;-90
2022/02/08 06:03:07;;;;;;;36.10;8.18;;;8.60;99.90;;;;;;4945761;28;20075;-90
2022/02/08 06:05:33;;;;;;;30.75;8.45;;;8.60;99.90;;;;;;4932533;28;20039;-90
2022/02/08 06:07:59;;;;;;;30.75;8.50;;;8.60;99.90;;;;;;4958954;28;20078;-91
2022/02/08 06:10:26;;;;;;;35.28;8.60;;;8.60;99.90;;;;;;4978618;28;20041;-88
2022/02/08 06:12:56;;;;;;;33.35;9.25;;;8.60;99.90;;;;;;4928470;28;20050;-89
2022/02/08 06:15:24;;;;;;;25.48;7.25;;;8.60;99.90;;;;;;4947291;28;20050;-88
2022/02/08 06:17:55;;;;;;;21.40;7.68;;;8.60;99.90;;;;;;4909586;28;20035;-89
2022/02/08 06:20:25;;;;;;;29.58;7.60;;;8.60;99.90;;;;;;4961771;28;20050;-89
2022/02/08 06:22:51;;;;;;;29.48;6.93;;;8.60;99.90;;;;;;4948914;28;20100;-89
2022/02/08 06:25:20;;;;;;;33.67;7.93;;;8.60;99.90;;;;;;4919302;28;20187;-88
2022/02/08 06:27:49;;;;;;;25.70;6.78;;;8.60;99.90;;;;;;4968564;28;20387;-87
2022/02/08 06:30:19;;;;;;;30.05;5.95;;;8.60;99.90;;;;;;4935583;28;20047;-89
2022/02/08 06:32:50;;;;;;;32.05;5.75;;;8.60;99.90;;;;;;4947152;28;21467;-89
2022/02/08 06:35:29;;;;;;;24.67;6.10;;;8.60;99.90;;;;;;4955174;28;20147;-87
2022/02/08 06:37:57;;;;;;;29.48;5.65;;;8.60;99.90;;;;;;4927163;28;21133;-87
2022/02/08 06:40:29;;;;;;;21.80;4.93;;;8.60;99.90;;;;;;4942967;28;20077;-88
2022/02/08 06:42:59;;;;;;;24.40;5.10;;;8.60;99.90;;;;;;4946154;28;20770;-89
2022/02/08 06:45:28;;;;;;;19.70;4.40;;;8.60;99.90;;;;;;4974190;28;20046;-89
2022/02/08 06:47:54;;;;;;;21.88;5.28;;;8.60;99.90;;;;;;4936648;28;20390;-88
2022/02/08 06:50:20;;;;;;;24.88;5.50;;;8.70;99.90;;;;;;4947210;28;20264;-89
2022/02/08 06:53:02;;;;;;;28.98;4.95;;;8.70;99.90;;;;;;4939590;28;20056;-88
2022/02/08 06:55:28;;;;;;;22.85;5.05;;;8.70;99.90;;;;;;4954157;28;20538;-89
2022/02/08 06:58:06;;;;;;;25.08;4.88;;;8.60;99.90;;;;;;4911795;28;20051;-90
2022/02/08 07:00:44;;;;;;;23.77;4.35;;;8.70;99.90;;;;;;4930996;28;20415;-91
2022/02/08 07:03:12;;;;;;;21.13;4.22;;;8.70;99.90;;;;;;4945800;28;20039;-89
2022/02/08 07:05:39;;;;;;;20.58;4.53;;;8.70;99.90;;;;;;4954053;28;20193;-88
2022/02/08 07:08:09;;;;;;;20.90;4.32;;;8.70;99.90;;;;;;4942713;28;20050;-89
2022/02/08 07:10:39;;;;;;;21.92;4.10;;;8.70;99.90;;;;;;4909743;28;20035;-89
2022/02/08 07:13:08;;;;;;;21.17;4.50;;;8.70;99.90;;;;;;4947909;28;20078;-90
2022/02/08 07:15:37;;;;;;;24.17;4.30;;;8.70;99.90;;;;;;4928845;28;20421;-91
2022/02/08 07:18:06;;;;;;;22.30;4.20;;;8.70;99.90;;;;;;4944204;28;20030;-89
2022/02/08 07:20:40;;;;;;;27.90;4.22;;;8.70;99.90;;;;;;4926903;28;20324;-91
2022/02/08 07:23:09;;;;;;;25.05;4.13;;;8.70;99.90;;;;;;4964767;28;20125;-90
2022/02/08 07:25:39;;;;;;;27.40;4.53;;;8.70;99.90;;;;;;4948293;28;20046;-89
2022/02/08 07:28:12;;;;;;;36.78;4.43;;;8.70;99.90;;;;;;4944946;28;20054;-89
2022/02/08 07:30:43;;;;;;;19.65;3.20;;;8.70;99.90;;;;;;4928192;28;20043;-89
2022/02/08 07:33:09;;;;;;;21.00;3.80;;;8.70;99.90;;;;;;4963493;28;20074;-88
2022/02/08 07:36:54;;;;;;;23.08;3.78;;;8.70;99.90;;;;;;4930211;28;20441;-90
2022/02/08 07:38:43;;;;;;;20.67;3.70;;;8.80;99.90;;;;;;4953625;28;20231;-90
2022/02/08 07:43:35;;;;;;;17.67;3.28;;;8.80;99.90;;;;;;4925601;28;20043;-90
2022/02/08 07:46:01;;;;;;;20.42;3.63;;;8.80;99.90;;;;;;4939694;28;20043;-91
2022/02/08 07:48:29;;;;;;;19.13;3.13;;;8.80;99.90;;;;;;4913821;28;20150;-89
2022/02/08 07:50:56;;;;;;;23.63;3.85;;;8.80;99.90;;;;;;4927814;28;20034;-88
2022/02/08 07:53:26;;;;;;;21.13;3.05;;;8.80;99.90;;;;;;4920770;28;20054;-90
2022/02/08 07:55:53;;;;;;;17.60;3.17;;;8.80;99.90;;;;;;4931619;28;20049;-91
2022/02/08 07:58:24;;;;;;;22.30;3.92;;;8.80;99.90;;;;;;4945169;28;20042;-90
2022/02/08 08:00:50;;;;;;;19.30;3.70;;;8.80;99.90;;;;;;4928547;28;20042;-87
2022/02/08 08:03:16;;;;;;;21.55;3.72;;;8.90;99.90;;;;;;4945616;28;20053;-88
2022/02/08 08:05:51;;;;;;;20.48;2.92;;;8.90;99.90;;;;;;4926147;28;20043;-88
2022/02/08 08:08:20;;;;;;;17.52;3.00;;;8.90;99.90;;;;;;4933094;28;20418;-88
2022/02/08 08:10:47;;;;;;;19.00;3.30;;;8.90;99.90;;;;;;4933568;28;20218;-88
2022/02/08 08:13:22;;;;;;;23.52;4.18;;;8.90;99.90;;;;;;4958976;28;20046;-88
2022/02/08 08:15:58;;;;;;;23.80;3.33;;;8.90;99.90;;;;;;4947546;28;20049;-90
2022/02/08 08:20:58;;;;;;;23.90;3.13;;;8.90;99.90;;;;;;4964206;28;20142;-88
2022/02/08 08:23:30;;;;;;;22.10;4.20;;;8.90;99.90;;;;;;4946084;28;20135;-90
2022/02/08 08:25:56;;;;;;;18.50;3.40;;;8.90;99.90;;;;;;4947574;28;20645;-91
2022/02/08 08:28:22;;;;;;;27.42;3.67;;;8.90;99.90;;;;;;4935113;28;20417;-87
2022/02/08 08:30:48;;;;;;;23.30;3.10;;;8.90;99.90;;;;;;4932946;29;20039;-89
2022/02/08 08:33:15;;;;;;;23.60;3.47;;;8.90;99.90;;;;;;4945064;28;20038;-91
2022/02/08 08:35:41;;;;;;;22.42;3.25;;;8.90;99.90;;;;;;4950534;28;20059;-89
2022/02/08 08:38:09;;;;;;;16.35;2.95;;;8.90;99.90;;;;;;4944759;28;20073;-87
2022/02/08 08:51:00;;;;;;;24.00;3.15;;;9.00;99.90;;;;;;4979637;28;20039;-90
2022/02/08 08:53:27;;;;;;;26.30;3.58;;;9.10;99.90;;;;;;4936387;28;20126;-91
2022/02/08 08:55:55;;;;;;;22.38;3.38;;;9.10;99.90;;;;;;4949748;28;20043;-88
2022/02/08 08:58:21;;;;;;;19.33;3.13;;;9.10;99.90;;;;;;4949754;28;20042;-90
2022/02/08 09:00:47;;;;;;;15.95;3.10;;;9.10;99.90;;;;;;4928901;28;20490;-88
2022/02/08 09:03:19;;;;;;;20.35;2.97;;;9.10;99.90;;;;;;4958810;28;20475;-88
2022/02/08 09:05:56;;;;;;;21.42;3.55;;;9.20;99.90;;;;;;4920183;28;20344;-90
2022/02/08 09:08:30;;;;;;;24.90;3.60;;;9.20;99.90;;;;;;4945150;28;20046;-88
2022/02/08 09:11:04;;;;;;;22.73;3.67;;;9.20;99.90;;;;;;4948945;28;20437;-90
2022/02/08 09:13:46;;;;;;;19.08;2.72;;;9.20;99.90;;;;;;4931122;28;20035;-89
2022/02/08 09:16:38;;;;;;;17.88;3.33;;;9.20;99.90;;;;;;4960830;28;20039;-89
2022/02/08 09:27:22;;;;;;;23.05;3.03;;;9.30;99.90;;;;;;4950844;28;20418;-89
2022/02/08 09:30:00;;;;;;;19.37;2.83;;;9.30;99.90;;;;;;4925694;28;20061;-91
2022/02/08 09:32:41;;;;;;;24.95;4.03;;;9.30;99.90;;;;;;4925248;28;20299;-89
2022/02/08 09:35:08;;;;;;;26.10;3.35;;;9.30;99.90;;;;;;4984195;23;20476;-87
2022/02/08 09:37:35;;;;;;;21.92;4.05;;;9.30;99.90;;;;;;4958648;28;20057;-87
2022/02/08 09:40:06;;;;;;;19.08;3.25;;;9.30;99.90;;;;;;4943105;28;20052;-90
2022/02/08 09:42:38;;;;;;;22.48;3.22;;;9.30;99.90;;;;;;4957250;28;20035;-90
2022/02/08 09:45:21;;;;;;;16.77;3.05;;;9.30;99.90;;;;;;4948204;28;20117;-91
2022/02/08 09:50:29;;;;;;;14.20;2.47;;;9.40;99.90;;;;;;4975883;28;20587;-87
2022/02/08 09:52:59;;;;;;;22.75;3.78;;;9.50;99.90;;;;;;4972067;28;20475;-89
2022/02/08 09:55:28;;;;;;;19.70;3.28;;;9.50;99.90;;;;;;4959558;28;20046;-89
2022/02/08 09:57:57;;;;;;;23.40;3.75;;;9.50;99.90;;;;;;4953522;28;20083;-90
2022/02/08 10:00:25;;;;;;;14.35;2.95;;;9.60;99.90;;;;;;4962290;28;20053;-88
2022/02/08 10:02:50;;;;;;;16.13;2.70;;;9.60;99.90;;;;;;4954020;28;20042;-90
2022/02/08 10:05:16;;;;;;;21.35;3.53;;;9.60;99.90;;;;;;4946158;28;20042;-87
2022/02/08 10:07:43;;;;;;;17.65;3.42;;;9.70;99.90;;;;;;4960624;28;20030;-88
2022/02/08 10:10:11;;;;;;;18.92;3.58;;;9.70;99.90;;;;;;4947557;28;20125;-90
2022/02/08 10:23:56;;;;;;;17.27;2.95;;;9.90;99.90;;;;;;4956476;28;20042;-88
2022/02/08 10:26:42;;;;;;;13.95;3.17;;;9.90;99.90;;;;;;4979679;28;20038;-89
2022/02/08 10:37:50;;;;;;;15.02;2.67;;;10.00;99.90;;;;;;4975560;28;20375;-89
2022/02/08 10:40:22;;;;;;;15.50;2.72;;;9.90;99.90;;;;;;4974130;28;20078;-85
2022/02/08 10:42:58;;;;;;;17.08;2.85;;;10.00;99.90;;;;;;4946938;28;20398;-87
2022/02/08 10:45:33;;;;;;;14.80;2.38;;;10.00;99.90;;;;;;4967207;28;20051;-87
2022/02/08 10:48:08;;;;;;;16.80;2.70;;;9.90;99.90;;;;;;4972163;28;20093;-87
2022/02/08 10:50:39;;;;;;;19.60;2.78;;;10.00;99.90;;;;;;4960807;28;20433;-88
2022/02/08 10:53:07;;;;;;;17.63;2.58;;;9.90;99.90;;;;;;4960017;28;20039;-85
2022/02/08 11:01:13;;;;;;;14.35;2.53;;;9.90;99.90;;;;;;4974820;28;20053;-87
2022/02/08 11:03:50;;;;;;;21.85;2.40;;;10.00;99.90;;;;;;4972556;28;20065;-90
2022/02/08 11:06:41;;;;;;;17.60;2.40;;;9.90;99.90;;;;;;4970758;28;20493;-89
2022/02/08 11:12:04;;;;;;;14.32;2.03;;;9.90;99.90;;;;;;4972465;28;20043;-87
2022/02/08 11:15:02;;;;;;;16.17;2.45;;;10.00;99.90;;;;;;4958836;28;20536;-88
2022/02/08 11:20:37;;;;;;;21.73;2.72;;;10.00;99.90;;;;;;4973498;28;20048;-87
2022/02/08 11:26:01;;;;;;;16.92;2.50;;;10.00;99.90;;;;;;4975312;28;20088;-88
2022/02/08 11:28:42;;;;;;;12.00;1.95;;;10.10;99.90;;;;;;4960582;28;20105;-88
2022/02/08 11:31:23;;;;;;;20.65;2.80;;;10.10;99.90;;;;;;4956397;28;20049;-87
2022/02/08 11:49:14;;;;;;;9.35;2.75;;;10.20;99.90;;;;;;4992458;28;20330;-87
2022/02/08 11:51:44;;;;;;;19.13;3.27;;;10.20;99.90;;;;;;4969054;28;20056;-88
2022/02/08 11:54:57;;;;;;;15.45;2.35;;;10.10;99.90;;;;;;4959820;28;20300;-88
2022/02/08 12:00:36;;;;;;;16.40;2.72;;;10.20;99.90;;;;;;4988279;28;20053;-87
2022/02/08 12:03:42;;;;;;;15.68;3.08;;;10.10;99.90;;;;;;4977849;28;20049;-88
2022/02/08 12:08:53;;;;;;;22.33;3.33;;;10.20;99.90;;;;;;4980897;28;20034;-88
2022/02/08 12:11:38;;;;;;;24.73;2.92;;;10.10;99.90;;;;;;4970835;28;20352;-89
2022/02/08 12:31:57;;;;;;;23.73;2.78;;;10.20;99.90;;;;;;4983286;28;20493;-87
2022/02/08 12:54:11;;;;;;;17.63;2.97;;;10.30;99.90;;;;;;4916153;29;20047;-87
2022/02/08 13:05:31;;;;;;;17.92;2.83;;;10.40;99.90;;;;;;4972839;28;20101;-85
2022/02/08 14:14:37;;;;;;;23.23;2.90;;;10.20;99.90;;;;;;4973923;28;20454;-87
2022/02/08 14:22:53;;;;;;;21.52;3.13;;;10.20;99.90;;;;;;4977108;28;20081;-89
2022/02/08 14:25:31;;;;;;;20.58;3.78;;;10.20;99.90;;;;;;4976269;28;20385;-86
2022/02/08 14:31:23;;;;;;;21.17;3.20;;;10.10;99.90;;;;;;4967580;28;20049;-91
2022/02/08 14:36:26;;;;;;;30.75;4.07;;;10.10;99.90;;;;;;4975466;28;20053;-90
2022/02/08 15:09:00;;;;;;;19.27;3.28;;;10.10;99.90;;;;;;4982494;28;20041;-88
2022/02/08 15:11:34;;;;;;;11.43;2.20;;;10.10;99.90;;;;;;4958707;28;20077;-88
2022/02/08 15:14:05;;;;;;;20.15;2.80;;;10.10;99.90;;;;;;4971593;28;20674;-89
2022/02/08 15:16:36;;;;;;;23.50;3.38;;;10.10;99.90;;;;;;4973667;28;20046;-88
2022/02/08 15:19:11;;;;;;;19.83;3.15;;;10.10;99.90;;;;;;4954522;28;20088;-89
2022/02/08 15:21:37;;;;;;;18.55;3.47;;;10.10;99.90;;;;;;4985967;28;20040;-87
2022/02/08 15:24:03;;;;;;;18.67;3.20;;;10.00;99.90;;;;;;4941954;28;20501;-85
2022/02/08 15:26:29;;;;;;;23.13;2.67;;;10.00;99.90;;;;;;4965736;28;20044;-86
2022/02/08 15:29:03;;;;;;;20.17;3.00;;;10.00;99.90;;;;;;4958969;28;20037;-90
2022/02/08 15:31:29;;;;;;;16.58;2.63;;;10.00;99.90;;;;;;4973068;28;20048;-87
2022/02/08 15:33:56;;;;;;;16.73;2.83;;;10.00;99.90;;;;;;4962040;28;20092;-87
2022/02/08 15:36:22;;;;;;;11.75;2.45;;;10.00;99.90;;;;;;4956821;28;20041;-87
2022/02/08 15:38:54;;;;;;;16.25;2.38;;;10.00;99.90;;;;;;4992119;28;20038;-85
2022/02/08 15:41:20;;;;;;;21.13;3.17;;;10.10;99.90;;;;;;4986058;28;20050;-84
2022/02/08 15:43:46;;;;;;;14.48;2.10;;;10.00;99.90;;;;;;4973067;28;20049;-87
2022/02/08 15:46:25;;;;;;;19.38;2.90;;;10.00;99.90;;;;;;4978109;28;20408;-89
2022/02/08 15:48:53;;;;;;;20.85;2.25;;;10.00;99.90;;;;;;4950658;28;20493;-89
2022/02/08 15:51:26;;;;;;;13.60;2.40;;;10.00;99.90;;;;;;4992463;28;20038;-88
2022/02/08 16:07:57;;;;;;;15.35;2.90;;;9.90;99.90;;;;;;4991974;28;20104;-88
2022/02/08 16:10:32;;;;;;;21.75;3.17;;;9.90;99.90;;;;;;4973586;28;20512;-85
2022/02/08 16:13:28;;;;;;;18.23;2.83;;;9.90;99.90;;;;;;4960837;28;20046;-87
2022/02/08 16:18:46;;;;;;;16.85;2.85;;;9.90;99.90;;;;;;4965214;28;20049;-86
2022/02/08 16:21:34;;;;;;;14.25;2.60;;;9.90;99.90;;;;;;4981002;28;20671;-86
2022/02/08 16:27:03;;;;;;;16.45;2.45;;;9.80;99.90;;;;;;4974375;28;20400;-86
2022/02/08 16:32:28;;;;;;;20.30;2.63;;;9.90;99.90;;;;;;4978023;28;20768;-89
2022/02/08 16:56:52;;;;;;;23.38;3.22;;;9.70;99.90;;;;;;4972828;28;20049;-86
2022/02/08 16:59:23;;;;;;;20.55;2.97;;;9.80;99.90;;;;;;4994192;28;20057;-87
2022/02/08 17:01:49;;;;;;;19.70;2.83;;;9.70;99.90;;;;;;4963482;28;20045;-85
2022/02/08 17:04:15;;;;;;;15.48;2.97;;;9.70;99.90;;;;;;4995311;28;20050;-86
2022/02/08 17:06:41;;;;;;;14.57;2.55;;;9.70;99.90;;;;;;4962087;28;20042;-87
2022/02/08 17:09:13;;;;;;;18.92;2.50;;;9.70;99.90;;;;;;4978713;28;20546;-90
2022/02/08 17:11:47;;;;;;;14.80;2.47;;;9.70;99.90;;;;;;4971936;28;20124;-87
2022/02/08 17:14:30;;;;;;;17.75;2.90;;;9.70;99.90;;;;;;4986013;28;20404;-88
2022/02/08 17:17:25;;;;;;;20.35;2.80;;;9.70;99.90;;;;;;4978687;28;20030;-87
2022/02/08 17:46:48;;;;;;;13.05;2.20;;;9.80;99.90;;;;;;4979888;28;20669;-87
2022/02/08 17:49:14;;;;;;;14.20;2.75;;;9.70;99.90;;;;;;4977249;28;20092;-86
2022/02/08 17:51:40;;;;;;;17.10;3.67;;;9.70;99.90;;;;;;4974554;28;20038;-86
2022/02/08 17:54:06;;;;;;;13.60;2.90;;;9.70;99.90;;;;;;4959703;28;20048;-89
2022/02/08 17:56:32;;;;;;;18.05;3.38;;;9.70;99.90;;;;;;4973285;28;20034;-87
2022/02/08 17:59:10;;;;;;;20.40;3.30;;;9.60;99.90;;;;;;4954428;28;20429;-87
2022/02/08 18:01:39;;;;;;;13.48;3.90;;;9.50;99.90;;;;;;4991739;28;20639;-85
2022/02/08 18:04:06;;;;;;;17.08;4.07;;;9.50;99.90;;;;;;4977731;28;20038;-88
2022/02/08 18:06:32;;;;;;;15.10;3.92;;;9.50;99.90;;;;;;4979837;28;20033;-88
2022/02/08 18:09:02;;;;;;;20.23;3.67;;;9.50;99.90;;;;;;4978145;28;20037;-88
2022/02/08 18:11:30;;;;;;;21.75;4.90;;;9.50;99.90;;;;;;5001265;28;20037;-86
2022/02/08 18:13:56;;;;;;;22.92;4.38;;;9.40;99.90;;;;;;4962869;28;20124;-88
2022/02/08 18:16:23;;;;;;;21.10;4.72;;;9.30;99.90;;;;;;4991553;28;20788;-86
2022/02/08 18:18:49;;;;;;;15.27;3.30;;;9.30;99.90;;;;;;4961480;28;20073;-85
2022/02/08 18:21:24;;;;;;;15.73;3.33;;;9.30;99.90;;;;;;4960332;28;20046;-87
2022/02/08 18:24:20;;;;;;;17.33;3.42;;;9.30;99.90;;;;;;4981144;28;20124;-85
2022/02/08 18:27:26;;;;;;;16.25;3.47;;;9.30;99.90;;;;;;4995759;28;20684;-86
2022/02/08 18:57:25;;;;;;;14.68;2.08;;;9.60;99.90;;;;;;4988473;28;20049;-89
2022/02/08 19:14:05;;;;;;;13.55;3.67;;;9.60;99.90;;;;;;4989483;28;20037;-87
2022/02/08 19:19:41;;;;;;;15.15;4.75;;;9.60;99.90;;;;;;5005597;28;20049;-87
2022/02/08 19:21:55;;;;;;;20.75;4.53;;;9.50;99.90;;;;;;4971783;28;20041;-87
2022/02/08 19:24:22;;;;;;;15.40;4.72;;;9.50;99.90;;;;;;4972021;28;20046;-86
2022/02/08 19:26:55;;;;;;;18.55;4.95;;;9.50;99.90;;;;;;4965758;28;20033;-87
2022/02/08 19:29:23;;;;;;;15.40;5.22;;;9.40;99.90;;;;;;4990979;28;20173;-87
2022/02/08 19:31:50;;;;;;;16.35;5.22;;;9.40;99.90;;;;;;4972236;28;20100;-89
2022/02/08 19:34:16;;;;;;;15.70;5.95;;;9.40;99.90;;;;;;4961333;28;20068;-88
2022/02/08 19:36:44;;;;;;;17.02;5.78;;;9.40;99.90;;;;;;4981720;28;20049;-87
2022/02/08 19:39:11;;;;;;;17.63;5.88;;;9.40;99.90;;;;;;4954659;28;20041;-86
2022/02/08 19:41:43;;;;;;;18.20;7.28;;;9.30;99.90;;;;;;4970706;28;20440;-89
2022/02/08 19:44:09;;;;;;;;;;;9.30;99.90;;;;;;4978150;28;20489;-86
2022/02/08 19:46:36;;;;;;;22.20;7.70;;;9.30;99.90;;;;;;4983946;28;19921;-88
2022/02/08 19:49:08;;;;;;;21.23;8.07;;;9.30;99.90;;;;;;4956356;28;20553;-88
2022/02/08 19:51:34;;;;;;;18.35;7.80;;;9.20;99.90;;;;;;4956260;28;20091;-88
2022/02/08 19:54:07;;;;;;;23.90;7.85;;;9.20;99.90;;;;;;4967075;28;20048;-90
2022/02/08 19:56:51;;;;;;;20.80;8.30;;;9.10;99.90;;;;;;4988618;28;20037;-87
2022/02/08 19:59:38;;;;;;;25.92;9.95;;;9.10;99.90;;;;;;4981666;28;20306;-85
2022/02/08 20:02:09;;;;;;;23.15;9.90;;;9.10;99.90;;;;;;4981057;28;20402;-88
2022/02/08 20:04:35;;;;;;;24.92;10.80;;;9.10;99.90;;;;;;4995137;28;20057;-88
2022/02/08 20:07:05;;;;;;;21.15;10.35;;;9.00;99.90;;;;;;4944714;28;20042;-86
2022/02/08 20:09:35;;;;;;;21.95;9.75;;;9.00;99.90;;;;;;4973993;28;20152;-85
2022/02/08 20:12:04;;;;;;;26.17;11.45;;;9.00;99.90;;;;;;4971646;28;20034;-91
2022/02/08 20:14:30;;;;;;;19.63;10.55;;;9.00;99.90;;;;;;4971745;28;20042;-85
2022/02/08 20:16:55;;;;;;;23.73;11.40;;;9.00;99.90;;;;;;4988576;28;20064;-88
2022/02/08 20:19:23;;;;;;;31.30;11.50;;;9.00;99.90;;;;;;4946465;28;20472;-86
2022/02/08 20:22:03;;;;;;;21.48;10.27;;;8.90;99.90;;;;;;5005402;28;20369;-87
2022/02/08 20:24:33;;;;;;;24.40;10.75;;;8.90;99.90;;;;;;4987066;28;20520;-88
2022/02/08 20:29:46;;;;;;;26.27;12.02;;;8.90;99.90;;;;;;4969739;28;20121;-88
2022/02/08 20:32:12;;;;;;;27.30;11.85;;;8.90;99.90;;;;;;4964338;28;20172;-85
2022/02/08 20:34:39;;;;;;;27.48;13.90;;;8.90;99.90;;;;;;4957419;28;20053;-86